sensor_id;sensor_type;location;lat;lon;timestamp;P1;durP1;ratioP1;P2;durP2;ratioP2
55647;SDS011;45266;48.756;9.246;2024-02-23T00:02:20;0.50;;;0.40;;
55647;SDS011;45266;48.756;9.246;2024-02-23T00:07:22;0.50;;;0.40;;
55647;SDS011;45266;48.756;9.246;2024-02-23T00:12:24;0.50;;;0.40;;
55647;SDS011;45266;48.756;9.246;2024-02-23T00:17:26;9.00;;;0.50;;
55647;SDS011;45266;48.756;9.246;2024-02-23T00:22:28;0.40;;;0.30;;
55647;SDS011;45266;48.756;9.246;2024-02-23T00:27:30;0.40;;;0.30;;
55647;SDS011;45266;48.756;9.246;2024-02-23T00:32:32;0.70;;;0.40;;
55647;SDS011;45266;48.756;9.246;2024-02-23T00:37:34;0.60;;;0.40;;
55647;SDS011;45266;48.756;9.246;2024-02-23T00:42:36;0.50;;;0.30;;
55647;SDS011;45266;48.756;9.246;2024-02-23T00:47:38;5.17;;;0.60;;
55647;SDS011;45266;48.756;9.246;2024-02-23T00:52:40;0.40;;;0.20;;
55647;SDS011;45266;48.756;9.246;2024-02-23T00:57:42;2.60;;;1.23;;
55647;SDS011;45266;48.756;9.246;2024-02-23T01:02:44;0.70;;;0.40;;
55647;SDS011;45266;48.756;9.246;2024-02-23T01:07:46;0.70;;;0.50;;
55647;SDS011;45266;48.756;9.246;2024-02-23T01:12:47;0.40;;;0.33;;
55647;SDS011;45266;48.756;9.246;2024-02-23T01:17:49;2.77;;;0.40;;
55647;SDS011;45266;48.756;9.246;2024-02-23T01:22:52;0.50;;;0.30;;
55647;SDS011;45266;48.756;9.246;2024-02-23T01:27:54;0.63;;;0.47;;
55647;SDS011;45266;48.756;9.246;2024-02-23T01:32:56;0.80;;;0.40;;
55647;SDS011;45266;48.756;9.246;2024-02-23T01:37:58;0.70;;;0.50;;
55647;SDS011;45266;48.756;9.246;2024-02-23T01:43:00;0.40;;;0.30;;
55647;SDS011;45266;48.756;9.246;2024-02-23T01:54:27;0.40;;;0.40;;
55647;SDS011;45266;48.756;9.246;2024-02-23T01:59:30;0.63;;;0.40;;
55647;SDS011;45266;48.756;9.246;2024-02-23T02:04:32;0.50;;;0.50;;
55647;SDS011;45266;48.756;9.246;2024-02-23T02:09:34;0.40;;;0.40;;
55647;SDS011;45266;48.756;9.246;2024-02-23T02:14:36;0.60;;;0.40;;
55647;SDS011;45266;48.756;9.246;2024-02-23T02:19:38;0.80;;;0.60;;
55647;SDS011;45266;48.756;9.246;2024-02-23T02:24:40;0.50;;;0.40;;
55647;SDS011;45266;48.756;9.246;2024-02-23T02:29:45;0.83;;;0.60;;
55647;SDS011;45266;48.756;9.246;2024-02-23T02:34:46;0.70;;;0.50;;
55647;SDS011;45266;48.756;9.246;2024-02-23T02:39:48;1.17;;;0.50;;
55647;SDS011;45266;48.756;9.246;2024-02-23T02:44:50;4.83;;;0.50;;
55647;SDS011;45266;48.756;9.246;2024-02-23T02:49:52;3.50;;;0.60;;
55647;SDS011;45266;48.756;9.246;2024-02-23T02:55:03;2.40;;;0.60;;
55647;SDS011;45266;48.756;9.246;2024-02-23T03:00:09;1.03;;;0.40;;
55647;SDS011;45266;48.756;9.246;2024-02-23T03:05:11;1.80;;;1.17;;
55647;SDS011;45266;48.756;9.246;2024-02-23T03:10:14;0.60;;;0.50;;
55647;SDS011;45266;48.756;9.246;2024-02-23T03:15:16;0.97;;;0.40;;
55647;SDS011;45266;48.756;9.246;2024-02-23T03:20:18;0.40;;;0.30;;
55647;SDS011;45266;48.756;9.246;2024-02-23T03:25:20;3.73;;;1.80;;
55647;SDS011;45266;48.756;9.246;2024-02-23T03:30:22;1.07;;;0.50;;
55647;SDS011;45266;48.756;9.246;2024-02-23T03:35:24;1.57;;;0.50;;
55647;SDS011;45266;48.756;9.246;2024-02-23T03:40:25;3.30;;;0.70;;
55647;SDS011;45266;48.756;9.246;2024-02-23T03:45:27;2.20;;;0.60;;
55647;SDS011;45266;48.756;9.246;2024-02-23T03:50:29;0.60;;;0.40;;
55647;SDS011;45266;48.756;9.246;2024-02-23T03:55:32;0.97;;;0.53;;
55647;SDS011;45266;48.756;9.246;2024-02-23T04:00:34;3.07;;;0.77;;
55647;SDS011;45266;48.756;9.246;2024-02-23T04:05:37;0.77;;;0.70;;
55647;SDS011;45266;48.756;9.246;2024-02-23T04:10:39;0.50;;;0.50;;
55647;SDS011;45266;48.756;9.246;2024-02-23T04:15:41;4.70;;;3.27;;
55647;SDS011;45266;48.756;9.246;2024-02-23T04:20:43;1.10;;;0.97;;
55647;SDS011;45266;48.756;9.246;2024-02-23T04:25:45;2.20;;;0.70;;
55647;SDS011;45266;48.756;9.246;2024-02-23T04:30:47;0.40;;;0.30;;
55647;SDS011;45266;48.756;9.246;2024-02-23T04:35:49;0.40;;;0.40;;
55647;SDS011;45266;48.756;9.246;2024-02-23T04:40:51;3.33;;;0.68;;
55647;SDS011;45266;48.756;9.246;2024-02-23T04:45:53;0.63;;;0.50;;
55647;SDS011;45266;48.756;9.246;2024-02-23T04:50:54;0.40;;;0.40;;
55647;SDS011;45266;48.756;9.246;2024-02-23T04:55:56;0.50;;;0.50;;
55647;SDS011;45266;48.756;9.246;2024-02-23T05:00:58;0.40;;;0.40;;
55647;SDS011;45266;48.756;9.246;2024-02-23T05:06:00;0.60;;;0.57;;
55647;SDS011;45266;48.756;9.246;2024-02-23T05:11:02;4.10;;;0.60;;
55647;SDS011;45266;48.756;9.246;2024-02-23T05:16:04;1.47;;;0.70;;
55647;SDS011;45266;48.756;9.246;2024-02-23T05:21:06;0.67;;;0.67;;
55647;SDS011;45266;48.756;9.246;2024-02-23T05:26:08;6.37;;;0.93;;
55647;SDS011;45266;48.756;9.246;2024-02-23T05:31:12;0.60;;;0.43;;
55647;SDS011;45266;48.756;9.246;2024-02-23T05:36:14;2.47;;;0.90;;
55647;SDS011;45266;48.756;9.246;2024-02-23T05:41:17;1.97;;;0.60;;
55647;SDS011;45266;48.756;9.246;2024-02-23T05:46:19;2.00;;;0.60;;
55647;SDS011;45266;48.756;9.246;2024-02-23T05:51:22;3.40;;;0.60;;
55647;SDS011;45266;48.756;9.246;2024-02-23T05:56:24;0.67;;;0.50;;
55647;SDS011;45266;48.756;9.246;2024-02-23T06:01:26;0.50;;;0.40;;
55647;SDS011;45266;48.756;9.246;2024-02-23T06:06:28;0.70;;;0.43;;
55647;SDS011;45266;48.756;9.246;2024-02-23T06:11:30;0.83;;;0.70;;
55647;SDS011;45266;48.756;9.246;2024-02-23T06:16:32;0.80;;;0.63;;
55647;SDS011;45266;48.756;9.246;2024-02-23T06:21:34;5.60;;;0.80;;
55647;SDS011;45266;48.756;9.246;2024-02-23T06:26:37;1.97;;;0.97;;
55647;SDS011;45266;48.756;9.246;2024-02-23T06:31:39;1.53;;;1.13;;
55647;SDS011;45266;48.756;9.246;2024-02-23T06:36:42;1.67;;;0.80;;
55647;SDS011;45266;48.756;9.246;2024-02-23T06:41:44;1.43;;;0.80;;
55647;SDS011;45266;48.756;9.246;2024-02-23T06:46:47;5.70;;;2.60;;
55647;SDS011;45266;48.756;9.246;2024-02-23T06:51:48;9.57;;;1.70;;
55647;SDS011;45266;48.756;9.246;2024-02-23T06:56:50;2.67;;;1.33;;
55647;SDS011;45266;48.756;9.246;2024-02-23T07:01:52;6.73;;;2.30;;
55647;SDS011;45266;48.756;9.246;2024-02-23T07:06:55;4.23;;;2.60;;
55647;SDS011;45266;48.756;9.246;2024-02-23T07:11:57;2.50;;;1.70;;
55647;SDS011;45266;48.756;9.246;2024-02-23T07:16:59;1.70;;;1.07;;
55647;SDS011;45266;48.756;9.246;2024-02-23T07:22:01;5.20;;;1.60;;
55647;SDS011;45266;48.756;9.246;2024-02-23T07:27:03;1.90;;;0.83;;
55647;SDS011;45266;48.756;9.246;2024-02-23T07:32:05;1.57;;;0.97;;
55647;SDS011;45266;48.756;9.246;2024-02-23T07:37:08;1.37;;;0.80;;
55647;SDS011;45266;48.756;9.246;2024-02-23T07:42:10;1.13;;;1.03;;
55647;SDS011;45266;48.756;9.246;2024-02-23T07:47:14;2.60;;;1.47;;
55647;SDS011;45266;48.756;9.246;2024-02-23T07:52:16;2.50;;;1.53;;
55647;SDS011;45266;48.756;9.246;2024-02-23T07:57:18;2.33;;;1.80;;
55647;SDS011;45266;48.756;9.246;2024-02-23T08:02:21;2.80;;;1.90;;
55647;SDS011;45266;48.756;9.246;2024-02-23T08:07:23;2.07;;;1.60;;
55647;SDS011;45266;48.756;9.246;2024-02-23T08:12:27;4.60;;;2.00;;
55647;SDS011;45266;48.756;9.246;2024-02-23T08:17:29;2.80;;;1.77;;
55647;SDS011;45266;48.756;9.246;2024-02-23T08:22:31;3.80;;;1.67;;
55647;SDS011;45266;48.756;9.246;2024-02-23T08:27:33;4.97;;;1.60;;
55647;SDS011;45266;48.756;9.246;2024-02-23T08:32:35;2.00;;;1.83;;
55647;SDS011;45266;48.756;9.246;2024-02-23T08:37:38;1.77;;;1.67;;
55647;SDS011;45266;48.756;9.246;2024-02-23T08:42:40;2.00;;;1.33;;
55647;SDS011;45266;48.756;9.246;2024-02-23T08:47:43;2.20;;;1.03;;
55647;SDS011;45266;48.756;9.246;2024-02-23T08:52:46;1.67;;;0.90;;
55647;SDS011;45266;48.756;9.246;2024-02-23T08:57:48;3.70;;;1.37;;
55647;SDS011;45266;48.756;9.246;2024-02-23T09:02:51;3.33;;;0.67;;
55647;SDS011;45266;48.756;9.246;2024-02-23T09:07:53;1.63;;;0.73;;
55647;SDS011;45266;48.756;9.246;2024-02-23T09:12:55;0.93;;;0.60;;
55647;SDS011;45266;48.756;9.246;2024-02-23T09:17:57;1.77;;;0.70;;
55647;SDS011;45266;48.756;9.246;2024-02-23T09:22:59;1.10;;;0.60;;
55647;SDS011;45266;48.756;9.246;2024-02-23T09:28:01;1.03;;;0.60;;
55647;SDS011;45266;48.756;9.246;2024-02-23T09:33:04;1.10;;;0.63;;
55647;SDS011;45266;48.756;9.246;2024-02-23T09:38:07;0.70;;;0.67;;
55647;SDS011;45266;48.756;9.246;2024-02-23T09:43:08;1.17;;;1.10;;
55647;SDS011;45266;48.756;9.246;2024-02-23T09:48:12;2.00;;;0.70;;
55647;SDS011;45266;48.756;9.246;2024-02-23T09:53:19;1.20;;;0.90;;
55647;SDS011;45266;48.756;9.246;2024-02-23T09:58:22;2.63;;;0.83;;
55647;SDS011;45266;48.756;9.246;2024-02-23T10:03:25;1.73;;;0.80;;
55647;SDS011;45266;48.756;9.246;2024-02-23T10:08:30;1.20;;;0.70;;
55647;SDS011;45266;48.756;9.246;2024-02-23T10:13:32;0.70;;;0.70;;
55647;SDS011;45266;48.756;9.246;2024-02-23T10:18:34;1.00;;;0.50;;
55647;SDS011;45266;48.756;9.246;2024-02-23T10:23:39;5.93;;;1.57;;
55647;SDS011;45266;48.756;9.246;2024-02-23T10:28:41;4.50;;;0.83;;
55647;SDS011;45266;48.756;9.246;2024-02-23T10:33:44;0.93;;;0.83;;
55647;SDS011;45266;48.756;9.246;2024-02-23T10:38:49;1.73;;;0.50;;
55647;SDS011;45266;48.756;9.246;2024-02-23T10:43:55;0.70;;;0.50;;
55647;SDS011;45266;48.756;9.246;2024-02-23T10:49:00;2.90;;;0.70;;
55647;SDS011;45266;48.756;9.246;2024-02-23T10:54:03;1.73;;;0.90;;
55647;SDS011;45266;48.756;9.246;2024-02-23T10:59:05;6.83;;;0.67;;
55647;SDS011;45266;48.756;9.246;2024-02-23T11:04:09;1.67;;;1.10;;
55647;SDS011;45266;48.756;9.246;2024-02-23T11:09:12;3.70;;;1.37;;
55647;SDS011;45266;48.756;9.246;2024-02-23T11:14:15;4.00;;;1.10;;
55647;SDS011;45266;48.756;9.246;2024-02-23T11:19:17;1.80;;;0.77;;
55647;SDS011;45266;48.756;9.246;2024-02-23T11:24:20;2.50;;;0.70;;
55647;SDS011;45266;48.756;9.246;2024-02-23T11:29:27;0.50;;;0.50;;
55647;SDS011;45266;48.756;9.246;2024-02-23T11:34:30;7.90;;;0.70;;
55647;SDS011;45266;48.756;9.246;2024-02-23T11:39:32;4.63;;;0.90;;
55647;SDS011;45266;48.756;9.246;2024-02-23T11:44:36;4.00;;;0.77;;
55647;SDS011;45266;48.756;9.246;2024-02-23T11:49:38;1.60;;;0.60;;
55647;SDS011;45266;48.756;9.246;2024-02-23T11:54:40;1.40;;;0.50;;
55647;SDS011;45266;48.756;9.246;2024-02-23T11:59:43;2.57;;;0.87;;
55647;SDS011;45266;48.756;9.246;2024-02-23T12:04:45;0.80;;;0.57;;
55647;SDS011;45266;48.756;9.246;2024-02-23T12:09:47;1.50;;;0.77;;
55647;SDS011;45266;48.756;9.246;2024-02-23T12:14:50;1.13;;;0.60;;
55647;SDS011;45266;48.756;9.246;2024-02-23T12:19:57;1.20;;;0.83;;
55647;SDS011;45266;48.756;9.246;2024-02-23T12:25:03;2.50;;;0.70;;
55647;SDS011;45266;48.756;9.246;2024-02-23T12:30:05;1.10;;;0.57;;
55647;SDS011;45266;48.756;9.246;2024-02-23T12:35:14;4.67;;;0.90;;
55647;SDS011;45266;48.756;9.246;2024-02-23T12:40:18;0.80;;;0.70;;
55647;SDS011;45266;48.756;9.246;2024-02-23T12:45:20;2.97;;;0.90;;
55647;SDS011;45266;48.756;9.246;2024-02-23T12:50:22;2.87;;;0.70;;
55647;SDS011;45266;48.756;9.246;2024-02-23T12:55:24;3.00;;;0.60;;
55647;SDS011;45266;48.756;9.246;2024-02-23T13:00:26;3.90;;;0.80;;
55647;SDS011;45266;48.756;9.246;2024-02-23T13:05:28;2.60;;;0.90;;
55647;SDS011;45266;48.756;9.246;2024-02-23T13:10:30;0.87;;;0.67;;
55647;SDS011;45266;48.756;9.246;2024-02-23T13:15:32;1.77;;;0.83;;
55647;SDS011;45266;48.756;9.246;2024-02-23T13:20:35;1.13;;;0.67;;
55647;SDS011;45266;48.756;9.246;2024-02-23T13:25:38;2.77;;;0.80;;
55647;SDS011;45266;48.756;9.246;2024-02-23T13:30:41;2.77;;;0.60;;
55647;SDS011;45266;48.756;9.246;2024-02-23T13:35:43;1.37;;;1.10;;
55647;SDS011;45266;48.756;9.246;2024-02-23T13:40:45;0.80;;;0.70;;
55647;SDS011;45266;48.756;9.246;2024-02-23T13:45:49;2.50;;;0.63;;
55647;SDS011;45266;48.756;9.246;2024-02-23T13:50:52;1.00;;;0.90;;
55647;SDS011;45266;48.756;9.246;2024-02-23T13:55:55;1.50;;;0.50;;
55647;SDS011;45266;48.756;9.246;2024-02-23T14:00:57;2.27;;;0.70;;
55647;SDS011;45266;48.756;9.246;2024-02-23T14:05:59;7.23;;;1.20;;
55647;SDS011;45266;48.756;9.246;2024-02-23T14:11:01;0.60;;;0.57;;
55647;SDS011;45266;48.756;9.246;2024-02-23T14:16:03;2.90;;;0.60;;
55647;SDS011;45266;48.756;9.246;2024-02-23T14:21:06;4.77;;;0.90;;
55647;SDS011;45266;48.756;9.246;2024-02-23T14:26:09;0.50;;;0.40;;
55647;SDS011;45266;48.756;9.246;2024-02-23T14:31:11;1.03;;;0.87;;
55647;SDS011;45266;48.756;9.246;2024-02-23T14:36:14;2.70;;;1.00;;
55647;SDS011;45266;48.756;9.246;2024-02-23T14:41:16;2.70;;;1.00;;
55647;SDS011;45266;48.756;9.246;2024-02-23T14:46:18;5.70;;;0.90;;
55647;SDS011;45266;48.756;9.246;2024-02-23T14:51:20;2.30;;;0.70;;
55647;SDS011;45266;48.756;9.246;2024-02-23T14:56:22;5.50;;;0.87;;
55647;SDS011;45266;48.756;9.246;2024-02-23T15:01:24;2.57;;;0.50;;
55647;SDS011;45266;48.756;9.246;2024-02-23T15:06:27;1.63;;;0.60;;
55647;SDS011;45266;48.756;9.246;2024-02-23T15:11:29;1.77;;;0.83;;
55647;SDS011;45266;48.756;9.246;2024-02-23T15:16:31;2.23;;;0.80;;
55647;SDS011;45266;48.756;9.246;2024-02-23T15:21:33;8.77;;;1.07;;
55647;SDS011;45266;48.756;9.246;2024-02-23T15:26:40;3.87;;;1.33;;
55647;SDS011;45266;48.756;9.246;2024-02-23T15:31:43;1.27;;;0.60;;
55647;SDS011;45266;48.756;9.246;2024-02-23T15:36:45;0.80;;;0.63;;
55647;SDS011;45266;48.756;9.246;2024-02-23T15:41:47;4.77;;;0.90;;
55647;SDS011;45266;48.756;9.246;2024-02-23T15:46:50;1.57;;;0.80;;
55647;SDS011;45266;48.756;9.246;2024-02-23T15:51:53;1.57;;;0.73;;
55647;SDS011;45266;48.756;9.246;2024-02-23T15:57:01;1.70;;;0.70;;
55647;SDS011;45266;48.756;9.246;2024-02-23T16:02:03;2.40;;;1.40;;
55647;SDS011;45266;48.756;9.246;2024-02-23T16:07:06;2.10;;;0.67;;
55647;SDS011;45266;48.756;9.246;2024-02-23T16:12:08;0.93;;;0.60;;
55647;SDS011;45266;48.756;9.246;2024-02-23T16:17:12;1.47;;;0.97;;
55647;SDS011;45266;48.756;9.246;2024-02-23T16:22:14;1.97;;;0.60;;
55647;SDS011;45266;48.756;9.246;2024-02-23T16:27:16;2.97;;;1.17;;
55647;SDS011;45266;48.756;9.246;2024-02-23T16:32:18;2.10;;;0.90;;
55647;SDS011;45266;48.756;9.246;2024-02-23T16:37:20;3.17;;;0.70;;
55647;SDS011;45266;48.756;9.246;2024-02-23T16:42:22;3.27;;;1.13;;
55647;SDS011;45266;48.756;9.246;2024-02-23T16:47:24;6.30;;;1.27;;
55647;SDS011;45266;48.756;9.246;2024-02-23T16:52:26;2.70;;;1.90;;
55647;SDS011;45266;48.756;9.246;2024-02-23T16:57:28;8.87;;;3.50;;
55647;SDS011;45266;48.756;9.246;2024-02-23T17:02:30;4.13;;;2.63;;
55647;SDS011;45266;48.756;9.246;2024-02-23T17:07:33;2.30;;;1.33;;
55647;SDS011;45266;48.756;9.246;2024-02-23T17:12:34;1.90;;;1.27;;
55647;SDS011;45266;48.756;9.246;2024-02-23T17:17:36;3.10;;;1.90;;
55647;SDS011;45266;48.756;9.246;2024-02-23T17:22:40;1.60;;;1.13;;
55647;SDS011;45266;48.756;9.246;2024-02-23T17:27:43;3.23;;;1.40;;
55647;SDS011;45266;48.756;9.246;2024-02-23T17:32:45;5.57;;;1.93;;
55647;SDS011;45266;48.756;9.246;2024-02-23T17:37:47;2.50;;;1.43;;
55647;SDS011;45266;48.756;9.246;2024-02-23T17:42:50;4.50;;;2.03;;
55647;SDS011;45266;48.756;9.246;2024-02-23T17:47:51;1.83;;;1.47;;
55647;SDS011;45266;48.756;9.246;2024-02-23T17:52:56;1.80;;;1.27;;
55647;SDS011;45266;48.756;9.246;2024-02-23T17:57:59;1.57;;;1.27;;
55647;SDS011;45266;48.756;9.246;2024-02-23T18:03:16;3.87;;;1.67;;
55647;SDS011;45266;48.756;9.246;2024-02-23T18:08:20;2.80;;;1.20;;
55647;SDS011;45266;48.756;9.246;2024-02-23T18:13:22;1.53;;;1.20;;
55647;SDS011;45266;48.756;9.246;2024-02-23T18:18:25;10.73;;;1.47;;
55647;SDS011;45266;48.756;9.246;2024-02-23T18:23:28;5.73;;;2.23;;
55647;SDS011;45266;48.756;9.246;2024-02-23T18:28:30;3.47;;;1.67;;
55647;SDS011;45266;48.756;9.246;2024-02-23T18:33:33;3.40;;;1.27;;
55647;SDS011;45266;48.756;9.246;2024-02-23T18:38:35;2.40;;;1.03;;
55647;SDS011;45266;48.756;9.246;2024-02-23T18:43:38;4.10;;;2.10;;
55647;SDS011;45266;48.756;9.246;2024-02-23T18:48:45;3.17;;;1.50;;
55647;SDS011;45266;48.756;9.246;2024-02-23T18:53:48;1.80;;;1.37;;
55647;SDS011;45266;48.756;9.246;2024-02-23T18:58:50;1.90;;;1.50;;
55647;SDS011;45266;48.756;9.246;2024-02-23T19:03:55;2.60;;;1.57;;
55647;SDS011;45266;48.756;9.246;2024-02-23T19:08:59;2.80;;;1.40;;
55647;SDS011;45266;48.756;9.246;2024-02-23T19:14:05;1.50;;;1.40;;
55647;SDS011;45266;48.756;9.246;2024-02-23T19:19:08;2.80;;;1.43;;
55647;SDS011;45266;48.756;9.246;2024-02-23T19:24:10;2.97;;;1.70;;
55647;SDS011;45266;48.756;9.246;2024-02-23T19:29:12;2.37;;;1.30;;
55647;SDS011;45266;48.756;9.246;2024-02-23T19:34:14;5.23;;;1.90;;
55647;SDS011;45266;48.756;9.246;2024-02-23T19:39:15;3.67;;;1.70;;
55647;SDS011;45266;48.756;9.246;2024-02-23T19:44:17;4.90;;;1.60;;
55647;SDS011;45266;48.756;9.246;2024-02-23T19:49:19;7.33;;;1.20;;
55647;SDS011;45266;48.756;9.246;2024-02-23T19:54:21;3.07;;;1.63;;
55647;SDS011;45266;48.756;9.246;2024-02-23T19:59:23;4.37;;;1.67;;
55647;SDS011;45266;48.756;9.246;2024-02-23T20:04:25;2.10;;;1.33;;
55647;SDS011;45266;48.756;9.246;2024-02-23T20:09:27;2.10;;;1.40;;
55647;SDS011;45266;48.756;9.246;2024-02-23T20:14:28;2.80;;;1.80;;
55647;SDS011;45266;48.756;9.246;2024-02-23T20:19:30;2.20;;;1.20;;
55647;SDS011;45266;48.756;9.246;2024-02-23T20:24:33;6.77;;;1.23;;
55647;SDS011;45266;48.756;9.246;2024-02-23T20:29:39;2.57;;;2.13;;
55647;SDS011;45266;48.756;9.246;2024-02-23T20:34:41;3.57;;;1.30;;
55647;SDS011;45266;48.756;9.246;2024-02-23T20:39:43;3.43;;;1.40;;
55647;SDS011;45266;48.756;9.246;2024-02-23T20:44:44;3.30;;;1.50;;
55647;SDS011;45266;48.756;9.246;2024-02-23T20:49:46;3.70;;;2.37;;
55647;SDS011;45266;48.756;9.246;2024-02-23T20:54:49;1.70;;;1.60;;
55647;SDS011;45266;48.756;9.246;2024-02-23T20:59:51;3.30;;;2.37;;
55647;SDS011;45266;48.756;9.246;2024-02-23T21:04:53;6.63;;;1.80;;
55647;SDS011;45266;48.756;9.246;2024-02-23T21:09:55;2.40;;;2.00;;
55647;SDS011;45266;48.756;9.246;2024-02-23T21:14:56;2.30;;;1.73;;
55647;SDS011;45266;48.756;9.246;2024-02-23T21:19:58;5.50;;;1.40;;
55647;SDS011;45266;48.756;9.246;2024-02-23T21:25:00;3.10;;;1.93;;
55647;SDS011;45266;48.756;9.246;2024-02-23T21:30:04;2.73;;;2.10;;
55647;SDS011;45266;48.756;9.246;2024-02-23T21:35:08;4.20;;;1.80;;
55647;SDS011;45266;48.756;9.246;2024-02-23T21:40:10;7.40;;;1.60;;
55647;SDS011;45266;48.756;9.246;2024-02-23T21:45:12;2.03;;;1.83;;
55647;SDS011;45266;48.756;9.246;2024-02-23T21:50:15;3.67;;;2.20;;
55647;SDS011;45266;48.756;9.246;2024-02-23T21:55:24;4.73;;;2.70;;
55647;SDS011;45266;48.756;9.246;2024-02-23T22:00:28;3.67;;;2.10;;
55647;SDS011;45266;48.756;9.246;2024-02-23T22:05:30;2.80;;;2.03;;
55647;SDS011;45266;48.756;9.246;2024-02-23T22:10:32;1.70;;;1.60;;
55647;SDS011;45266;48.756;9.246;2024-02-23T22:15:34;1.57;;;1.07;;
55647;SDS011;45266;48.756;9.246;2024-02-23T22:20:36;2.63;;;1.50;;
55647;SDS011;45266;48.756;9.246;2024-02-23T22:25:38;1.50;;;1.40;;
55647;SDS011;45266;48.756;9.246;2024-02-23T22:30:39;3.43;;;2.10;;
55647;SDS011;45266;48.756;9.246;2024-02-23T22:35:41;4.73;;;2.17;;
55647;SDS011;45266;48.756;9.246;2024-02-23T22:40:44;4.07;;;2.77;;
55647;SDS011;45266;48.756;9.246;2024-02-23T22:45:46;3.17;;;2.17;;
55647;SDS011;45266;48.756;9.246;2024-02-23T22:50:47;3.00;;;1.40;;
55647;SDS011;45266;48.756;9.246;2024-02-23T22:55:49;1.60;;;1.30;;
55647;SDS011;45266;48.756;9.246;2024-02-23T23:00:51;2.60;;;1.53;;
55647;SDS011;45266;48.756;9.246;2024-02-23T23:05:54;2.60;;;1.70;;
55647;SDS011;45266;48.756;9.246;2024-02-23T23:10:56;3.97;;;2.07;;
55647;SDS011;45266;48.756;9.246;2024-02-23T23:15:58;3.50;;;1.40;;
55647;SDS011;45266;48.756;9.246;2024-02-23T23:21:00;2.57;;;1.73;;
55647;SDS011;45266;48.756;9.246;2024-02-23T23:26:03;3.37;;;1.97;;
55647;SDS011;45266;48.756;9.246;2024-02-23T23:31:05;6.73;;;1.53;;
55647;SDS011;45266;48.756;9.246;2024-02-23T23:36:10;3.27;;;1.67;;
55647;SDS011;45266;48.756;9.246;2024-02-23T23:41:23;1.73;;;1.57;;
55647;SDS011;45266;48.756;9.246;2024-02-23T23:46:24;1.70;;;1.60;;
55647;SDS011;45266;48.756;9.246;2024-02-23T23:51:26;10.33;;;1.77;;
55647;SDS011;45266;48.756;9.246;2024-02-23T23:56:28;1.57;;;1.47;;
